createdAt,value
2019-04-22T14:47:19.953Z,39.23
2019-04-22T14:49:52.837Z,22.37
2019-04-22T14:52:27.604Z,12.53
2019-04-22T14:54:51.997Z,44.35
2019-04-22T14:57:10.925Z,42.85
2019-04-22T14:59:42.218Z,16.97
2019-04-22T15:02:17.161Z,11.45
2019-04-22T15:04:50.043Z,12.28
2019-04-22T15:07:23.164Z,18.13
2019-04-22T15:09:55.737Z,16.93
2019-04-22T15:12:35.741Z,20.52
2019-04-22T15:15:03.569Z,17.77
2019-04-22T15:17:40.926Z,13.60
2019-04-22T15:20:21.776Z,11.90
2019-04-22T15:22:54.653Z,12.18
2019-04-22T15:25:26.361Z,19.45
2019-04-22T15:27:59.354Z,17.30
2019-04-22T15:30:30.923Z,17.45
2019-04-22T15:33:03.315Z,14.53
2019-04-22T15:35:35.452Z,12.45
2019-04-22T15:38:07.060Z,28.50
2019-04-22T15:40:38.682Z,20.25
2019-04-22T15:43:10.941Z,17.57
2019-04-22T15:45:43.290Z,22.48
2019-04-22T15:48:14.823Z,25.30
2019-04-22T15:50:46.718Z,13.08
2019-04-22T15:53:18.139Z,16.70
2019-04-22T15:55:50.412Z,26.23
2019-04-22T15:58:21.903Z,22.40
2019-04-22T16:01:06.505Z,20.15
2019-04-22T16:03:28.979Z,14.80
2019-04-22T16:06:02.008Z,19.07
2019-04-22T16:08:37.184Z,18.32
2019-04-22T16:11:06.907Z,25.55
2019-04-22T16:13:40.041Z,19.10
2019-04-22T16:16:12.375Z,21.27
2019-04-22T16:18:44.433Z,21.48
2019-04-22T16:21:28.944Z,26.40
2019-04-22T16:23:58.460Z,26.50
2019-04-22T16:26:42.392Z,20.95
2019-04-22T16:29:17.022Z,33.67
2019-04-22T16:31:49.546Z,26.30
2019-04-22T16:34:21.644Z,19.67
2019-04-22T16:36:54.497Z,25.68
2019-04-22T16:39:27.122Z,26.15
2019-04-22T16:41:58.599Z,22.77
2019-04-22T16:44:30.392Z,38.67
2019-04-22T16:47:01.961Z,37.25
2019-04-22T16:49:33.852Z,35.80
2019-04-22T16:52:05.896Z,27.37
2019-04-22T16:54:37.264Z,37.05
2019-04-22T16:57:10.152Z,33.53
2019-04-22T16:59:42.735Z,51.18
2019-04-22T17:02:32.942Z,38.67
2019-04-22T17:05:09.379Z,35.75
2019-04-22T17:07:42.330Z,41.18
2019-04-22T17:10:15.668Z,22.85
2019-04-22T17:12:56.360Z,24.32
2019-04-22T17:15:21.916Z,23.62
2019-04-22T17:17:54.844Z,20.30
2019-04-22T17:20:27.120Z,32.48
2019-04-22T17:22:59.986Z,23.60
2019-04-22T17:25:32.115Z,21.12
2019-04-22T17:28:03.770Z,23.77
2019-04-22T17:30:36.142Z,22.87
2019-04-22T17:33:08.923Z,28.55
2019-04-22T17:35:43.210Z,39.30
2019-04-22T17:38:26.279Z,64.25
2019-04-22T17:41:06.189Z,77.00
2019-04-22T17:43:54.084Z,82.62
2019-04-22T17:46:16.235Z,72.97
2019-04-22T17:48:53.030Z,43.23
2019-04-22T17:54:02.854Z,31.10
2019-04-22T17:56:39.103Z,44.53
2019-04-22T17:59:08.275Z,31.82
2019-04-22T18:01:41.786Z,56.35
2019-04-22T18:03:57.794Z,44.75
2019-04-22T18:06:54.834Z,45.10
2019-04-22T18:09:27.709Z,45.98
2019-04-22T18:12:05.173Z,44.53
2019-04-22T18:14:47.969Z,48.33
2019-04-22T18:17:07.058Z,51.83
2019-04-22T18:19:35.166Z,55.78
2019-04-22T18:22:02.532Z,51.33
2019-04-22T18:24:32.456Z,68.17
2019-04-22T18:27:31.861Z,56.30
2019-04-22T18:29:48.595Z,49.20
2019-04-22T18:32:15.400Z,65.75
2019-04-22T18:34:49.226Z,60.28
2019-04-22T18:37:23.700Z,57.55
2019-04-22T18:40:06.554Z,48.02
2019-04-22T18:42:32.900Z,53.63
2019-04-22T18:45:24.640Z,53.68
2019-04-22T18:47:38.738Z,44.63
2019-04-22T18:50:24.614Z,44.05
2019-04-22T18:52:53.278Z,56.05
2019-04-22T18:55:28.409Z,53.70
2019-04-22T18:58:02.799Z,54.85
2019-04-22T19:00:25.457Z,37.40
2019-04-22T19:03:05.325Z,38.38
2019-04-22T19:05:49.442Z,45.43
2019-04-22T19:08:36.891Z,43.25
2019-04-22T19:11:02.289Z,43.15
2019-04-22T19:16:19.609Z,38.00
2019-04-22T19:18:41.550Z,38.83
2019-04-22T19:21:13.608Z,42.43
2019-04-22T19:23:44.999Z,48.20
2019-04-22T19:26:20.481Z,54.25
2019-04-22T19:28:52.285Z,41.80
2019-04-22T19:31:24.679Z,41.53
2019-04-22T19:34:00.789Z,60.23
2019-04-22T19:36:32.334Z,45.38
2019-04-22T19:39:02.903Z,52.23
2019-04-22T19:41:37.703Z,62.60
2019-04-22T19:44:10.554Z,51.48
2019-04-22T19:46:46.643Z,64.35
2019-04-22T19:49:24.475Z,97.95
2019-04-22T19:51:57.400Z,85.45
2019-04-22T19:54:19.044Z,75.75
2019-04-22T19:56:45.625Z,58.95
2019-04-22T19:59:20.765Z,62.43
2019-04-22T20:02:00.968Z,73.70
2019-04-22T20:04:46.290Z,66.05
2019-04-22T20:07:14.142Z,51.45
2019-04-22T20:12:19.087Z,62.88
2019-04-22T20:14:55.553Z,73.57
2019-04-22T20:17:37.953Z,79.92
2019-04-22T20:20:06.520Z,61.60
2019-04-22T20:22:33.008Z,79.15
2019-04-22T20:24:53.806Z,76.42
2019-04-22T20:27:41.614Z,104.35
2019-04-22T20:30:14.125Z,100.20
2019-04-22T20:32:41.265Z,87.35
2019-04-22T20:35:21.295Z,86.35
2019-04-22T20:38:02.913Z,106.20
2019-04-22T20:40:28.653Z,112.52
2019-04-22T20:43:11.802Z,113.35
2019-04-22T20:45:39.995Z,117.15
2019-04-22T20:47:58.757Z,160.15
2019-04-22T20:50:41.417Z,93.40
2019-04-22T20:53:25.819Z,97.50
2019-04-22T20:55:52.550Z,98.15
2019-04-22T20:58:28.578Z,88.58
2019-04-22T21:00:50.239Z,90.30
2019-04-22T21:03:20.879Z,97.90
2019-04-22T21:05:55.925Z,87.37
2019-04-22T21:08:38.486Z,91.65
2019-04-22T21:11:04.248Z,133.40
2019-04-22T21:13:46.615Z,116.28
2019-04-22T21:16:23.761Z,82.55
2019-04-22T21:18:44.453Z,82.57
2019-04-22T21:21:29.755Z,92.10
2019-04-22T21:23:48.578Z,74.95
2019-04-22T21:26:29.068Z,135.03
2019-04-22T21:28:58.425Z,141.00
2019-04-22T21:31:51.223Z,169.57
2019-04-22T21:34:06.755Z,145.02
2019-04-22T21:36:46.203Z,112.08
2019-04-22T21:39:12.573Z,147.68
2019-04-22T21:41:46.515Z,124.65
2019-04-22T21:44:18.415Z,132.60
2019-04-22T21:47:03.420Z,140.60
2019-04-22T21:49:31.507Z,167.13
2019-04-22T21:52:01.260Z,182.10
2019-04-22T21:54:36.610Z,170.97
2019-04-22T21:57:24.013Z,217.87
2019-04-22T21:59:59.525Z,158.07
2019-04-22T22:02:31.516Z,178.27
2019-04-22T22:04:55.170Z,139.45
2019-04-22T22:07:19.893Z,136.47
2019-04-22T22:10:09.915Z,138.57
2019-04-22T22:12:42.522Z,131.47
2019-04-22T22:15:16.547Z,147.53
2019-04-22T22:17:42.294Z,160.70
2019-04-22T22:20:14.748Z,137.28
2019-04-22T22:23:06.775Z,176.87
2019-04-22T22:25:28.029Z,187.30
2019-04-22T22:28:01.696Z,169.25
2019-04-22T22:30:54.751Z,220.02
2019-04-22T22:33:05.775Z,191.82
2019-04-22T22:35:40.863Z,203.52
2019-04-22T22:38:13.498Z,158.70
2019-04-22T22:40:30.632Z,280.50
2019-04-22T22:43:05.494Z,151.07
2019-04-22T22:45:42.571Z,127.42
2019-04-22T22:51:02.130Z,119.50
2019-04-22T22:56:08.770Z,113.65
2019-04-22T22:58:41.023Z,113.88
2019-04-22T23:01:10.374Z,95.55
2019-04-22T23:03:52.907Z,88.45
2019-04-22T23:06:26.280Z,103.45
2019-04-22T23:08:54.080Z,86.35
2019-04-22T23:11:46.586Z,77.90
2019-04-22T23:14:02.486Z,69.53
2019-04-22T23:16:22.084Z,80.25
2019-04-22T23:19:04.510Z,72.53
2019-04-22T23:21:41.638Z,91.00
2019-04-22T23:27:04.335Z,97.00
2019-04-22T23:29:37.070Z,88.07
2019-04-22T23:32:08.795Z,97.27
2019-04-22T23:34:50.040Z,68.37
2019-04-22T23:37:17.786Z,81.57
2019-04-22T23:40:04.158Z,80.87
2019-04-22T23:42:27.314Z,81.87
2019-04-22T23:45:04.044Z,65.50
2019-04-22T23:47:30.916Z,69.97
2019-04-22T23:50:17.991Z,170.02
2019-04-22T23:52:52.990Z,177.40
2019-04-22T23:55:26.082Z,135.37
2019-04-22T23:58:02.633Z,108.30
